createdAt,value
2023-02-26T00:00:26.066Z,-1.98
2023-02-26T00:02:27.907Z,-1.87
2023-02-26T00:04:29.503Z,-1.87
2023-02-26T00:06:31.103Z,-1.92
2023-02-26T00:08:32.246Z,-1.84
2023-02-26T00:10:34.222Z,-1.81
2023-02-26T00:12:36.214Z,-1.9
2023-02-26T00:14:37.556Z,-1.98
2023-02-26T00:16:39.596Z,-2.02
2023-02-26T00:18:40.903Z,-2.13
2023-02-26T00:20:42.670Z,-2.12
2023-02-26T00:22:44.531Z,-2.09
2023-02-26T00:24:45.657Z,-2.17
2023-02-26T00:26:47.567Z,-2.15
2023-02-26T00:28:49.606Z,-2.13
2023-02-26T00:30:51.035Z,-2.05
2023-02-26T00:32:53.032Z,-2.03
2023-02-26T00:34:54.722Z,-2.12
2023-02-26T00:36:55.807Z,-2.19
2023-02-26T00:38:57.585Z,-2.24
2023-02-26T00:40:59.593Z,-2.28
2023-02-26T00:43:01.547Z,-2.33
2023-02-26T00:45:02.885Z,-2.35
2023-02-26T00:47:04.000Z,-2.52
2023-02-26T00:49:05.310Z,-2.49
2023-02-26T00:53:08.078Z,-2.37
2023-02-26T00:55:10.105Z,-2.38
2023-02-26T00:57:11.240Z,-2.3
2023-02-26T00:59:13.330Z,-2.4
2023-02-26T01:01:15.016Z,-2.44
2023-02-26T01:03:16.477Z,-2.48
2023-02-26T01:05:17.905Z,-2.48
2023-02-26T01:07:19.770Z,-2.35
2023-02-26T01:09:21.177Z,-2.38
2023-02-26T01:11:22.317Z,-2.34
2023-02-26T01:13:23.601Z,-2.22
2023-02-26T01:15:25.208Z,-2.22
2023-02-26T01:17:26.533Z,-2.02
2023-02-26T01:19:28.389Z,-1.97
2023-02-26T01:21:29.913Z,-1.98
2023-02-26T01:23:31.423Z,-2.03
2023-02-26T01:25:32.895Z,-2.04
2023-02-26T01:27:34.634Z,-2.01
2023-02-26T01:29:36.171Z,-1.91
2023-02-26T01:31:37.852Z,-1.79
2023-02-26T01:35:40.627Z,-1.63
2023-02-26T01:37:42.604Z,-1.64
2023-02-26T01:39:44.662Z,-1.65
2023-02-26T01:41:46.332Z,-1.7
2023-02-26T01:43:47.787Z,-1.79
2023-02-26T01:45:49.390Z,-1.85
2023-02-26T01:47:51.250Z,-1.98
2023-02-26T01:49:52.842Z,-2.15
2023-02-26T01:51:54.364Z,-2.23
2023-02-26T01:53:55.646Z,-2.32
2023-02-26T01:55:57.572Z,-2.41
2023-02-26T01:57:59.097Z,-2.49
2023-02-26T02:00:00.831Z,-2.52
2023-02-26T02:02:02.080Z,-2.64
2023-02-26T02:04:04.169Z,-2.62
2023-02-26T02:06:05.970Z,-2.64
2023-02-26T02:08:08.091Z,-2.6
2023-02-26T02:10:09.995Z,-2.63
2023-02-26T02:12:11.260Z,-2.65
2023-02-26T02:14:13.261Z,-2.52
2023-02-26T02:18:16.632Z,-2.5
2023-02-26T02:20:18.658Z,-2.5
2023-02-26T02:22:20.323Z,-2.49
2023-02-26T02:24:21.945Z,-2.45
2023-02-26T02:26:23.888Z,-2.38
2023-02-26T02:28:25.309Z,-2.34
2023-02-26T02:30:26.490Z,-2.32
2023-02-26T02:32:28.491Z,-2.24
2023-02-26T02:34:29.494Z,-2.17
2023-02-26T02:36:31.252Z,-2.31
2023-02-26T02:38:32.774Z,-2.34
2023-02-26T02:40:34.548Z,-2.48
2023-02-26T02:42:36.471Z,-2.57
2023-02-26T02:44:38.069Z,-2.68
2023-02-26T02:46:40.087Z,-2.64
2023-02-26T02:48:41.741Z,-2.71
2023-02-26T02:50:43.418Z,-2.79
2023-02-26T02:52:44.814Z,-2.84
2023-02-26T02:54:46.827Z,-2.86
2023-02-26T02:56:48.581Z,-2.81
2023-02-26T03:00:52.092Z,-2.71
2023-02-26T03:02:54.130Z,-2.68
2023-02-26T03:04:55.413Z,-2.63
2023-02-26T03:06:56.655Z,-2.66
2023-02-26T03:08:58.544Z,-2.58
2023-02-26T03:11:00.526Z,-2.62
2023-02-26T03:13:02.226Z,-2.64
2023-02-26T03:15:03.861Z,-2.68
2023-02-26T03:17:05.624Z,-2.72
2023-02-26T03:19:07.620Z,-2.81
2023-02-26T03:21:08.770Z,-2.87
2023-02-26T03:23:09.999Z,-2.9
2023-02-26T03:25:11.204Z,-2.8
2023-02-26T03:27:12.704Z,-2.86
2023-02-26T03:29:14.264Z,-2.85
2023-02-26T03:31:16.020Z,-2.93
2023-02-26T03:33:17.503Z,-2.91
2023-02-26T03:35:18.898Z,-2.82
2023-02-26T03:37:20.568Z,-2.91
2023-02-26T03:39:22.174Z,-2.96
2023-02-26T03:43:24.901Z,-3.13
2023-02-26T03:45:26.409Z,-3.08
2023-02-26T03:47:27.929Z,-3.07
2023-02-26T03:49:29.581Z,-3.11
2023-02-26T03:51:31.632Z,-3.16
2023-02-26T03:53:33.385Z,-3.26
2023-02-26T03:55:34.959Z,-3.27
2023-02-26T03:57:36.430Z,-3.27
2023-02-26T03:59:38.402Z,-3.34
2023-02-26T04:01:40.298Z,-3.41
2023-02-26T04:03:42.369Z,-3.55
2023-02-26T04:05:44.373Z,-3.58
2023-02-26T04:07:45.914Z,-3.43
2023-02-26T04:09:47.455Z,-3.48
2023-02-26T04:11:49.446Z,-3.42
2023-02-26T04:13:51.259Z,-3.48
2023-02-26T04:15:52.872Z,-3.43
2023-02-26T04:17:54.852Z,-3.23
2023-02-26T04:19:56.629Z,-3.05
2023-02-26T04:21:58.397Z,-3.02
2023-02-26T04:22:42.374Z,-3.02
2023-02-26T04:24:43.549Z,-3.14
2023-02-26T04:26:44.870Z,-3.15
2023-02-26T04:28:46.783Z,-3
2023-02-26T04:30:48.858Z,-3
2023-02-26T04:32:50.330Z,-2.93
2023-02-26T04:34:51.492Z,-2.78
2023-02-26T04:36:53.378Z,-2.72
2023-02-26T04:38:54.926Z,-2.73
2023-02-26T04:40:56.909Z,-2.67
2023-02-26T04:42:58.468Z,-2.71
2023-02-26T04:45:00.124Z,-2.7
2023-02-26T04:47:01.829Z,-2.75
2023-02-26T04:49:03.337Z,-2.61
2023-02-26T04:51:05.061Z,-2.63
2023-02-26T04:53:07.169Z,-2.51
2023-02-26T04:55:09.189Z,-2.41
2023-02-26T04:57:10.456Z,-2.37
2023-02-26T04:59:11.828Z,-2.44
2023-02-26T05:03:15.106Z,-2.38
2023-02-26T05:05:16.678Z,-2.33
2023-02-26T05:07:18.333Z,-2.4
2023-02-26T05:09:20.207Z,-2.45
2023-02-26T05:11:21.909Z,-2.37
2023-02-26T05:13:23.183Z,-2.45
2023-02-26T05:15:24.892Z,-2.48
2023-02-26T05:17:26.966Z,-2.38
2023-02-26T05:19:28.752Z,-2.48
2023-02-26T05:21:29.908Z,-2.52
2023-02-26T05:23:31.846Z,-2.68
2023-02-26T05:25:33.169Z,-2.65
2023-02-26T05:27:34.905Z,-2.68
2023-02-26T05:29:36.241Z,-2.77
2023-02-26T05:31:37.786Z,-2.75
2023-02-26T05:33:39.605Z,-2.64
2023-02-26T05:35:41.377Z,-2.74
2023-02-26T05:37:42.630Z,-2.76
2023-02-26T05:39:43.788Z,-2.92
2023-02-26T05:41:45.853Z,-2.77
2023-02-26T05:45:49.107Z,-2.69
2023-02-26T05:47:50.445Z,-2.69
2023-02-26T05:49:52.242Z,-2.76
2023-02-26T05:51:53.780Z,-2.69
2023-02-26T05:53:55.170Z,-2.69
2023-02-26T05:55:56.859Z,-2.7
2023-02-26T05:57:58.447Z,-2.68
2023-02-26T05:59:59.954Z,-2.58
2023-02-26T06:02:02.138Z,-2.53
2023-02-26T06:04:03.077Z,-2.47
2023-02-26T06:06:04.508Z,-2.28
2023-02-26T06:08:05.806Z,-2.32
2023-02-26T06:10:07.244Z,-2.13
2023-02-26T06:12:08.539Z,-2.07
2023-02-26T06:14:10.493Z,-2.02
2023-02-26T06:16:12.267Z,-2.07
2023-02-26T06:18:14.366Z,-2.01
2023-02-26T06:20:16.023Z,-1.98
2023-02-26T06:22:17.875Z,-1.98
2023-02-26T06:24:19.466Z,-1.95
2023-02-26T06:28:22.668Z,-1.9
2023-02-26T06:30:24.560Z,-1.91
2023-02-26T06:32:25.790Z,-1.94
2023-02-26T06:34:27.019Z,-1.86
2023-02-26T06:36:28.745Z,-1.8
2023-02-26T06:38:30.569Z,-1.82
2023-02-26T06:40:32.580Z,-1.83
2023-02-26T06:42:33.890Z,-1.8
2023-02-26T06:44:35.847Z,-1.75
2023-02-26T06:46:37.540Z,-1.71
2023-02-26T06:48:38.633Z,-1.69
2023-02-26T06:50:39.916Z,-1.66
2023-02-26T06:52:41.542Z,-1.64
2023-02-26T06:54:42.929Z,-1.6
2023-02-26T06:56:44.753Z,-1.64
2023-02-26T06:58:46.795Z,-1.58
2023-02-26T07:00:48.529Z,-1.55
2023-02-26T07:02:50.303Z,-1.58
2023-02-26T07:04:51.562Z,-1.55
2023-02-26T07:06:53.283Z,-1.59
2023-02-26T07:08:54.606Z,-1.53
2023-02-26T07:10:56.349Z,-1.52
2023-02-26T07:12:57.674Z,-1.51
2023-02-26T07:14:59.032Z,-1.47
2023-02-26T07:17:00.145Z,-1.42
2023-02-26T07:19:01.324Z,-1.43
2023-02-26T07:21:03.101Z,-1.37
2023-02-26T07:23:04.293Z,-1.37
2023-02-26T07:25:05.462Z,-1.43
2023-02-26T07:27:06.775Z,-1.36
2023-02-26T07:29:08.083Z,-1.34
2023-02-26T07:31:09.696Z,-1.33
2023-02-26T07:33:13.268Z,-1.33
2023-02-26T07:35:12.663Z,-1.26
2023-02-26T07:37:13.870Z,-1.3
2023-02-26T07:39:15.598Z,-1.24
2023-02-26T07:41:16.748Z,-1.23
2023-02-26T07:43:17.993Z,-1.2
2023-02-26T07:45:19.257Z,-1.21
2023-02-26T07:47:21.009Z,-1.22
2023-02-26T07:49:22.509Z,-1.2
2023-02-26T07:51:24.688Z,-1.16
2023-02-26T07:53:25.688Z,-1.13
2023-02-26T07:55:27.296Z,-1.03
2023-02-26T07:57:28.653Z,-0.88
2023-02-26T07:59:29.848Z,-0.63
2023-02-26T08:01:31.828Z,-0.7
2023-02-26T08:03:33.255Z,-0.71
2023-02-26T08:05:34.804Z,-0.67
2023-02-26T08:07:36.390Z,-0.76
2023-02-26T08:09:38.058Z,-0.81
2023-02-26T08:11:39.453Z,-0.82
2023-02-26T08:13:40.758Z,-0.7
2023-02-26T08:15:42.099Z,-0.83
2023-02-26T08:17:43.781Z,-0.75
2023-02-26T08:19:45.295Z,-0.6
2023-02-26T08:21:47.012Z,-0.56
2023-02-26T08:23:48.079Z,-0.56
2023-02-26T08:25:49.299Z,-0.58
2023-02-26T08:27:50.980Z,-0.6
2023-02-26T08:29:52.855Z,-0.55
2023-02-26T08:31:54.437Z,-0.69
2023-02-26T08:33:55.539Z,-0.62
2023-02-26T08:35:56.837Z,-0.63
2023-02-26T08:37:58.067Z,-0.5
2023-02-26T08:39:59.761Z,-0.45
2023-02-26T08:42:00.942Z,-0.33
2023-02-26T08:44:02.296Z,-0.23
2023-02-26T08:46:03.842Z,-0.02
2023-02-26T08:48:05.218Z,0.08
2023-02-26T08:52:08.840Z,0.09
2023-02-26T08:54:10.094Z,-0.18
2023-02-26T08:56:11.640Z,0.01
2023-02-26T08:58:13.412Z,0
2023-02-26T09:00:15.052Z,0.2
2023-02-26T09:02:17.474Z,0.1
2023-02-26T09:04:18.477Z,0
2023-02-26T09:06:20.410Z,0
2023-02-26T09:08:21.721Z,0.11
2023-02-26T09:10:23.435Z,-0.14
2023-02-26T09:12:25.251Z,-0.03
2023-02-26T09:14:26.489Z,0
2023-02-26T09:16:28.325Z,-0.05
2023-02-26T09:18:29.563Z,-0.21
2023-02-26T09:20:31.528Z,-0.24
2023-02-26T09:22:33.170Z,-0.24
2023-02-26T09:24:34.790Z,-0.28
2023-02-26T09:26:36.422Z,-0.27
2023-02-26T09:28:37.702Z,-0.17
2023-02-26T09:30:38.690Z,-0.19
2023-02-26T09:34:41.793Z,0.06
2023-02-26T09:36:43.099Z,0.02
2023-02-26T09:38:44.288Z,0.16
2023-02-26T09:40:45.464Z,0.3
2023-02-26T09:42:46.904Z,0.14
2023-02-26T09:44:48.321Z,0.33
2023-02-26T09:46:49.536Z,0.8
2023-02-26T09:48:50.738Z,0.56
2023-02-26T09:50:52.127Z,1.08
2023-02-26T09:52:53.129Z,1.15
2023-02-26T09:54:55.814Z,1.53
2023-02-26T09:56:57.741Z,1.72
2023-02-26T09:58:59.239Z,1.77
2023-02-26T10:01:00.449Z,1.75
2023-02-26T10:03:02.165Z,1.68
2023-02-26T10:05:03.289Z,1.12
2023-02-26T10:07:04.629Z,0.99
2023-02-26T10:09:06.169Z,1.06
2023-02-26T10:11:08.041Z,0.94
2023-02-26T10:13:09.731Z,0.75
2023-02-26T10:15:12.072Z,0.75
2023-02-26T10:17:13.305Z,0.86
2023-02-26T10:19:14.413Z,0.82
2023-02-26T10:21:15.468Z,0.94
2023-02-26T10:23:16.479Z,1.31
2023-02-26T10:25:17.909Z,1.43
2023-02-26T10:27:19.537Z,1.44
2023-02-26T10:29:23.102Z,1.55
2023-02-26T10:31:23.113Z,1.29
2023-02-26T10:33:24.889Z,1.34
2023-02-26T10:35:26.471Z,1.26
2023-02-26T10:37:28.085Z,1.21
2023-02-26T10:39:29.401Z,1.02
2023-02-26T10:41:30.687Z,0.78
2023-02-26T10:43:31.957Z,0.76
2023-02-26T10:45:33.841Z,0.73
2023-02-26T10:47:34.831Z,0.78
2023-02-26T10:49:36.704Z,0.74
2023-02-26T10:51:37.770Z,0.91
2023-02-26T10:53:40.658Z,1.02
2023-02-26T10:55:40.318Z,1.01
2023-02-26T10:57:41.852Z,1.19
2023-02-26T10:59:43.124Z,1.17
2023-02-26T11:01:44.968Z,0.95
2023-02-26T11:03:45.980Z,0.97
2023-02-26T11:05:47.566Z,0.84
2023-02-26T11:07:48.632Z,0.94
2023-02-26T11:10:33.920Z,0.78
2023-02-26T11:12:35.016Z,0.97
2023-02-26T11:14:36.766Z,0.84
2023-02-26T11:16:38.571Z,0.7
2023-02-26T11:18:39.723Z,0.75
2023-02-26T11:20:40.945Z,0.72
2023-02-26T11:22:42.026Z,0.76
2023-02-26T11:24:43.859Z,0.9
2023-02-26T11:26:46.344Z,0.98
2023-02-26T11:28:48.238Z,0.83
2023-02-26T11:30:49.661Z,0.9
2023-02-26T11:32:51.752Z,1.12
2023-02-26T11:34:53.579Z,1.11
2023-02-26T11:36:55.245Z,1.03
2023-02-26T11:38:56.914Z,1.15
2023-02-26T11:40:58.253Z,1.07
2023-02-26T11:42:59.729Z,0.94
2023-02-26T11:45:01.654Z,0.97
2023-02-26T11:47:02.933Z,1.07
2023-02-26T11:49:04.177Z,0.99
2023-02-26T11:51:05.701Z,1.27
2023-02-26T11:53:07.734Z,1.35
2023-02-26T11:55:08.998Z,1.55
2023-02-26T11:57:10.673Z,1.58
2023-02-26T11:59:11.832Z,1.41
2023-02-26T12:01:14.327Z,1.57
2023-02-26T12:03:16.076Z,1.53
2023-02-26T12:05:17.444Z,1.37
2023-02-26T12:07:18.933Z,1.5
2023-02-26T12:09:21.259Z,1.54
2023-02-26T12:11:22.513Z,1.7
2023-02-26T12:13:24.109Z,1.56
2023-02-26T12:15:25.480Z,1.68
2023-02-26T12:17:26.740Z,1.66
2023-02-26T12:19:28.093Z,1.6
2023-02-26T12:21:29.862Z,1.64
2023-02-26T12:23:31.235Z,1.8
2023-02-26T12:25:33.041Z,1.82
2023-02-26T12:27:34.825Z,2.04
2023-02-26T12:29:36.180Z,2.04
2023-02-26T12:31:37.959Z,2.28
2023-02-26T12:35:40.087Z,2.13
2023-02-26T12:37:41.974Z,2.08
2023-02-26T12:39:43.026Z,2.21
2023-02-26T12:41:44.390Z,2.4
2023-02-26T12:43:46.170Z,2.27
2023-02-26T12:45:47.681Z,2.28
2023-02-26T12:47:49.012Z,1.96
2023-02-26T12:49:50.504Z,1.81
2023-02-26T12:51:51.788Z,1.78
2023-02-26T12:53:53.497Z,1.73
2023-02-26T12:55:55.312Z,1.76
2023-02-26T12:57:56.708Z,2.18
2023-02-26T12:59:58.431Z,2.24
2023-02-26T13:02:01.574Z,2.3
2023-02-26T13:04:01.219Z,2.07
2023-02-26T13:06:02.378Z,1.93
2023-02-26T13:08:03.883Z,1.89
2023-02-26T13:10:05.046Z,1.67
2023-02-26T13:12:06.218Z,1.62
2023-02-26T13:14:07.855Z,1.6
2023-02-26T13:16:09.744Z,1.59
2023-02-26T13:18:11.618Z,1.62
2023-02-26T13:20:13.333Z,1.53
2023-02-26T13:22:14.885Z,1.65
2023-02-26T13:24:16.464Z,1.71
2023-02-26T13:26:17.621Z,1.82
2023-02-26T13:28:19.333Z,1.98
2023-02-26T13:30:20.718Z,2.2
2023-02-26T13:32:22.255Z,2.06
2023-02-26T13:34:24.013Z,2.18
2023-02-26T13:36:25.645Z,2.18
2023-02-26T13:38:27.293Z,2.05
2023-02-26T13:40:29.288Z,2.08
2023-02-26T13:42:30.355Z,2.12
2023-02-26T13:44:31.564Z,2.06
2023-02-26T13:46:33.548Z,2.18
2023-02-26T13:48:34.670Z,1.97
2023-02-26T13:50:36.337Z,1.88
2023-02-26T13:52:37.606Z,1.75
2023-02-26T13:54:39.096Z,1.7
2023-02-26T13:56:40.449Z,1.66
2023-02-26T13:58:41.942Z,1.66
2023-02-26T14:00:43.758Z,1.59
2023-02-26T14:02:45.436Z,1.42
2023-02-26T14:04:46.671Z,1.9
2023-02-26T14:06:48.465Z,2.49
2023-02-26T14:08:49.442Z,2.14
2023-02-26T14:10:50.454Z,2.11
2023-02-26T14:12:51.954Z,2.49
2023-02-26T14:14:53.907Z,2.21
2023-02-26T14:16:55.426Z,2.23
2023-02-26T14:18:56.702Z,2.34
2023-02-26T14:20:57.928Z,2.19
2023-02-26T14:22:58.971Z,2.09
2023-02-26T14:25:00.153Z,2.11
2023-02-26T14:27:01.822Z,1.98
2023-02-26T14:29:03.767Z,1.96
2023-02-26T14:31:05.762Z,1.89
2023-02-26T14:33:06.901Z,1.81
2023-02-26T14:35:08.800Z,1.8
2023-02-26T14:37:10.597Z,1.71
2023-02-26T14:39:11.667Z,1.82
2023-02-26T14:41:13.010Z,1.86
2023-02-26T14:43:14.891Z,1.74
2023-02-26T14:45:16.419Z,1.8
2023-02-26T14:47:18.280Z,1.74
2023-02-26T14:49:19.722Z,1.52
2023-02-26T14:51:20.925Z,1.5
2023-02-26T14:53:21.974Z,1.54
2023-02-26T14:55:24.172Z,1.88
2023-02-26T14:57:26.097Z,1.88
2023-02-26T14:59:28.094Z,1.79
2023-02-26T15:01:29.493Z,1.85
2023-02-26T15:03:31.109Z,1.99
2023-02-26T15:05:33.041Z,2
2023-02-26T15:07:34.414Z,1.88
2023-02-26T15:09:35.564Z,1.72
2023-02-26T15:11:36.908Z,1.45
2023-02-26T15:13:38.551Z,1.31
2023-02-26T15:15:40.269Z,1.24
2023-02-26T15:17:41.695Z,1.22
2023-02-26T15:19:42.826Z,1.64
2023-02-26T15:21:44.292Z,1.99
2023-02-26T15:23:45.717Z,1.9
2023-02-26T15:25:47.215Z,2.15
2023-02-26T15:27:48.911Z,2.01
2023-02-26T15:31:53.068Z,2.33
2023-02-26T15:33:54.768Z,1.95
2023-02-26T15:35:56.346Z,1.75
2023-02-26T15:37:58.063Z,1.71
2023-02-26T15:39:59.519Z,1.64
2023-02-26T15:42:01.301Z,1.54
2023-02-26T15:44:02.973Z,1.49
2023-02-26T15:46:04.885Z,1.76
2023-02-26T15:48:06.580Z,1.83
2023-02-26T15:50:08.380Z,1.93
2023-02-26T15:52:09.872Z,1.78
2023-02-26T15:54:11.460Z,1.63
2023-02-26T15:56:12.460Z,1.53
2023-02-26T15:58:13.929Z,1.33
2023-02-26T16:00:15.723Z,1.29
2023-02-26T16:02:17.347Z,1.22
2023-02-26T16:04:19.293Z,1.24
2023-02-26T16:06:21.240Z,1.26
2023-02-26T16:08:22.729Z,1.32
2023-02-26T16:10:23.937Z,1.33
2023-02-26T16:12:25.945Z,1.34
2023-02-26T16:14:27.150Z,1.25
2023-02-26T16:16:29.068Z,1.26
2023-02-26T16:18:30.347Z,1.17
2023-02-26T16:20:32.116Z,1.16
2023-02-26T16:22:33.314Z,1.04
2023-02-26T16:24:34.529Z,1
2023-02-26T16:26:35.964Z,0.98
2023-02-26T16:28:37.795Z,0.94
2023-02-26T16:30:39.417Z,0.92
2023-02-26T16:32:41.373Z,0.88
2023-02-26T16:34:43.263Z,0.86
2023-02-26T16:36:44.496Z,0.82
2023-02-26T16:38:45.690Z,0.81
2023-02-26T16:40:47.039Z,0.77
2023-02-26T16:42:48.522Z,0.8
2023-02-26T16:44:50.261Z,0.77
2023-02-26T16:46:51.549Z,0.75
2023-02-26T16:48:53.459Z,0.76
2023-02-26T16:50:54.559Z,0.76
2023-02-26T16:52:56.097Z,0.74
2023-02-26T16:56:58.928Z,0.69
2023-02-26T16:59:00.185Z,0.74
2023-02-26T17:01:01.658Z,0.72
2023-02-26T17:03:02.828Z,0.65
2023-02-26T17:05:04.720Z,0.63
2023-02-26T17:07:06.320Z,0.62
2023-02-26T17:09:07.654Z,0.61
2023-02-26T17:11:09.509Z,0.57
2023-02-26T17:13:10.972Z,0.56
2023-02-26T17:15:12.467Z,0.52
2023-02-26T17:17:14.479Z,0.54
2023-02-26T17:19:16.251Z,0.49
2023-02-26T17:21:17.620Z,0.52
2023-02-26T17:23:19.490Z,0.48
2023-02-26T17:25:20.790Z,0.45
2023-02-26T17:27:21.918Z,0.45
2023-02-26T17:29:23.885Z,0.47
2023-02-26T17:31:25.862Z,0.42
2023-02-26T17:33:27.488Z,0.4
2023-02-26T17:35:29.363Z,0.4
2023-02-26T17:37:30.483Z,0.44
2023-02-26T17:39:32.251Z,0.38
2023-02-26T17:41:33.464Z,0.39
2023-02-26T17:43:35.417Z,0.34
2023-02-26T17:45:37.200Z,0.25
2023-02-26T17:47:38.450Z,0.18
2023-02-26T17:49:40.327Z,0.13
2023-02-26T17:51:41.975Z,-0.02
2023-02-26T17:53:43.959Z,-0.05
2023-02-26T17:56:28.941Z,-0.11
2023-02-26T17:58:30.144Z,-0.2
2023-02-26T18:00:31.506Z,-0.27
2023-02-26T18:02:33.007Z,-0.22
2023-02-26T18:04:35.146Z,-0.24
2023-02-26T18:06:36.688Z,-0.38
2023-02-26T18:08:37.893Z,-0.41
2023-02-26T18:10:39.454Z,-0.43
2023-02-26T18:12:40.744Z,-0.45
2023-02-26T18:14:42.665Z,-0.63
2023-02-26T18:16:44.230Z,-0.66
2023-02-26T18:18:45.759Z,-0.7
2023-02-26T18:20:46.858Z,-0.72
2023-02-26T18:22:48.008Z,-0.72
2023-02-26T18:24:49.247Z,-0.79
2023-02-26T18:26:51.018Z,-0.63
2023-02-26T18:28:52.132Z,-0.71
2023-02-26T18:30:54.194Z,-0.71
2023-02-26T18:32:55.723Z,-0.77
2023-02-26T18:34:57.327Z,-0.76
2023-02-26T18:36:59.122Z,-0.87
2023-02-26T18:39:00.347Z,-0.83
2023-02-26T18:41:01.992Z,-0.83
2023-02-26T18:43:03.092Z,-0.88
2023-02-26T18:45:04.184Z,-1
2023-02-26T18:47:06.055Z,-1.11
2023-02-26T18:49:07.249Z,-1.04
2023-02-26T18:51:08.387Z,-1.12
2023-02-26T18:53:10.424Z,-1
2023-02-26T18:55:11.524Z,-1.08
2023-02-26T18:57:13.044Z,-1.04
2023-02-26T18:59:14.135Z,-0.98
2023-02-26T19:01:15.747Z,-1.07
2023-02-26T19:03:16.853Z,-1.11
2023-02-26T19:05:18.622Z,-0.97
2023-02-26T19:07:20.320Z,-1.08
2023-02-26T19:09:21.953Z,-1.09
2023-02-26T19:11:23.305Z,-1.03
2023-02-26T19:13:24.598Z,-1.08
2023-02-26T19:15:26.636Z,-1.18
2023-02-26T19:17:28.414Z,-1.02
2023-02-26T19:19:30.181Z,-1.07
2023-02-26T19:21:31.628Z,-0.99
2023-02-26T19:23:33.547Z,-1.13
2023-02-26T19:25:35.008Z,-1.02
2023-02-26T19:27:36.134Z,-1.13
2023-02-26T19:29:37.788Z,-1.21
2023-02-26T19:31:39.817Z,-1.22
2023-02-26T19:33:41.188Z,-1.12
2023-02-26T19:35:42.744Z,-1.17
2023-02-26T19:37:43.863Z,-1.18
2023-02-26T19:39:45.734Z,-1.25
2023-02-26T19:41:47.586Z,-1.28
2023-02-26T19:43:48.653Z,-1.22
2023-02-26T19:45:50.389Z,-1.22
2023-02-26T19:47:51.798Z,-1.14
2023-02-26T19:49:53.865Z,-1.21
2023-02-26T19:51:55.132Z,-1.28
2023-02-26T19:53:57.037Z,-1.24
2023-02-26T19:55:58.488Z,-1.36
2023-02-26T19:57:59.719Z,-1.43
2023-02-26T20:00:01.124Z,-1.44
2023-02-26T20:02:03.177Z,-1.39
2023-02-26T20:04:04.380Z,-1.38
2023-02-26T20:06:06.175Z,-1.47
2023-02-26T20:08:07.586Z,-1.5
2023-02-26T20:10:09.496Z,-1.54
2023-02-26T20:12:11.109Z,-1.72
2023-02-26T20:14:13.024Z,-1.63
2023-02-26T20:16:14.418Z,-1.65
2023-02-26T20:18:16.386Z,-1.55
2023-02-26T20:20:18.408Z,-1.7
2023-02-26T20:22:20.040Z,-1.75
2023-02-26T20:24:21.685Z,-1.65
2023-02-26T20:26:23.744Z,-1.59
2023-02-26T20:28:25.038Z,-1.76
2023-02-26T20:30:26.813Z,-1.85
2023-02-26T20:32:28.391Z,-1.94
2023-02-26T20:34:29.961Z,-1.78
2023-02-26T20:36:31.415Z,-1.77
2023-02-26T20:38:33.012Z,-1.9
2023-02-26T20:40:34.334Z,-1.9
2023-02-26T20:42:36.361Z,-1.8
2023-02-26T20:44:37.629Z,-1.9
2023-02-26T20:46:39.100Z,-1.72
2023-02-26T20:48:40.918Z,-1.79
2023-02-26T20:50:42.694Z,-1.73
2023-02-26T20:52:43.782Z,-1.67
2023-02-26T20:54:45.230Z,-1.69
2023-02-26T20:56:46.571Z,-1.67
2023-02-26T20:58:47.992Z,-1.66
2023-02-26T21:00:49.428Z,-1.67
2023-02-26T21:02:51.262Z,-1.64
2023-02-26T21:04:52.992Z,-1.72
2023-02-26T21:06:54.281Z,-1.69
2023-02-26T21:08:56.198Z,-1.82
2023-02-26T21:10:58.133Z,-2
2023-02-26T21:13:00.143Z,-1.98
2023-02-26T21:15:01.720Z,-2.01
2023-02-26T21:17:02.873Z,-2
2023-02-26T21:19:04.614Z,-2.15
2023-02-26T21:21:06.226Z,-2.05
2023-02-26T21:23:07.939Z,-1.95
2023-02-26T21:25:09.963Z,-2.15
2023-02-26T21:27:11.748Z,-2.21
2023-02-26T21:29:13.386Z,-2.19
2023-02-26T21:31:14.504Z,-2.27
2023-02-26T21:33:15.754Z,-2.27
2023-02-26T21:35:16.866Z,-2.21
2023-02-26T21:37:18.499Z,-2.23
2023-02-26T21:39:20.053Z,-2.22
2023-02-26T21:41:21.296Z,-2.24
2023-02-26T21:43:22.576Z,-2.21
2023-02-26T21:45:24.614Z,-2.22
2023-02-26T21:47:25.969Z,-2.17
2023-02-26T21:49:27.328Z,-2.13
2023-02-26T21:51:28.884Z,-2.23
2023-02-26T21:53:30.481Z,-2.27
2023-02-26T21:55:32.063Z,-2.22
2023-02-26T21:57:33.975Z,-2.16
2023-02-26T21:59:35.200Z,-2.2
2023-02-26T22:01:37.038Z,-2.26
2023-02-26T22:05:40.538Z,-2.33
2023-02-26T22:07:41.687Z,-2.33
2023-02-26T22:09:43.087Z,-2.37
2023-02-26T22:11:44.365Z,-2.34
2023-02-26T22:13:45.445Z,-2.33
2023-02-26T22:15:47.290Z,-2.45
2023-02-26T22:17:48.812Z,-2.44
2023-02-26T22:19:50.165Z,-2.52
2023-02-26T22:21:52.236Z,-2.46
2023-02-26T22:23:54.187Z,-2.44
2023-02-26T22:25:55.347Z,-2.39
2023-02-26T22:27:56.831Z,-2.46
2023-02-26T22:29:58.091Z,-2.32
2023-02-26T22:31:59.694Z,-2.44
2023-02-26T22:34:01.077Z,-2.49
2023-02-26T22:36:02.601Z,-2.59
2023-02-26T22:38:04.382Z,-2.56
2023-02-26T22:40:05.739Z,-2.51
2023-02-26T22:42:07.379Z,-2.48
2023-02-26T22:44:09.052Z,-2.53
2023-02-26T22:46:10.462Z,-2.66
2023-02-26T22:48:12.127Z,-2.72
2023-02-26T22:50:13.602Z,-2.8
2023-02-26T22:52:15.586Z,-2.73
2023-02-26T22:54:16.809Z,-2.85
2023-02-26T22:56:18.184Z,-2.95
2023-02-26T22:58:19.724Z,-2.91
2023-02-26T23:00:21.485Z,-2.99
2023-02-26T23:02:23.315Z,-3
2023-02-26T23:04:25.318Z,-3
2023-02-26T23:06:26.713Z,-3.03
2023-02-26T23:08:28.810Z,-3
2023-02-26T23:10:30.001Z,-3.07
2023-02-26T23:12:32.083Z,-3.08
2023-02-26T23:14:33.536Z,-2.97
2023-02-26T23:16:35.309Z,-2.98
2023-02-26T23:18:36.746Z,-2.93
2023-02-26T23:20:38.110Z,-2.94
2023-02-26T23:22:39.694Z,-2.99
2023-02-26T23:24:41.499Z,-3.13
2023-02-26T23:26:43.249Z,-3.11
2023-02-26T23:28:45.310Z,-3.15
2023-02-26T23:30:46.975Z,-3.18
2023-02-26T23:32:48.821Z,-3.19
2023-02-26T23:34:58.810Z,-3.22
2023-02-26T23:36:51.972Z,-3.31
2023-02-26T23:38:53.546Z,-3.35
2023-02-26T23:40:54.731Z,-3.38
2023-02-26T23:42:56.606Z,-3.4
2023-02-26T23:44:58.432Z,-3.25
2023-02-26T23:46:59.885Z,-3.27
2023-02-26T23:49:01.529Z,-3.23
2023-02-26T23:51:03.471Z,-3.25
2023-02-26T23:53:04.998Z,-3.25
2023-02-26T23:55:06.755Z,-3.36
2023-02-26T23:57:08.323Z,-3.33
2023-02-26T23:59:09.644Z,-3.35
